Time;durP1;ratioP1;P1;durP2;ratioP2;P2;SDS_P1;SDS_P2;PMS_P1;PMS_P2;Temp;Humidity;BMP_temperature;BMP_pressure;BME280_temperature;BME280_humidity;BME280_pressure;Samples;Min_cycle;Max_cycle;Signal;HPM_P1;HPM_P2
2022/05/21 00:00:41;;;;;;;11.30;2.70;;;;;;;;;;10386716;28;20038;-42
2022/05/21 00:05:41;;;;;;;7.13;2.00;;;;;;;;;;10373524;28;20037;-42
2022/05/21 00:10:43;;;;;;;19.45;2.10;;;;;;;;;;10389972;28;20121;-42
2022/05/21 00:15:45;;;;;;;6.28;2.15;;;;;;;;;;10364021;28;20522;-42
2022/05/21 00:20:48;;;;;;;6.95;2.15;;;;;;;;;;10364856;28;20467;-42
2022/05/21 00:25:59;;;;;;;8.07;2.47;;;;;;;;;;10372826;28;20030;-42
2022/05/21 00:31:01;;;;;;;6.70;1.95;;;;;;;;;;10372924;28;20030;-42
2022/05/21 00:36:03;;;;;;;8.93;2.00;;;;;;;;;;10372376;28;20042;-43
2022/05/21 00:41:06;;;;;;;7.65;1.95;;;;;;;;;;10373110;28;20593;-42
2022/05/21 00:46:12;;;;;;;3.47;1.73;;;;;;;;;;10371572;28;20413;-42
2022/05/21 00:51:20;;;;;;;8.77;2.10;;;;;;;;;;10388060;28;20027;-42
2022/05/21 00:56:24;;;;;;;9.68;1.90;;;;;;;;;;10358320;28;20030;-42
2022/05/21 01:01:28;;;;;;;5.05;1.95;;;;;;;;;;10354594;28;20056;-42
2022/05/21 01:06:29;;;;;;;5.05;1.75;;;;;;;;;;10370356;28;20072;-43
2022/05/21 01:11:30;;;;;;;9.10;1.90;;;;;;;;;;10372199;28;20033;-42
2022/05/21 01:16:32;;;;;;;6.03;2.03;;;;;;;;;;10353670;28;20049;-43
2022/05/21 01:21:33;;;;;;;3.63;2.00;;;;;;;;;;10357106;28;20034;-42
2022/05/21 01:26:35;;;;;;;9.50;2.42;;;;;;;;;;10367331;28;20456;-42
2022/05/21 01:31:36;;;;;;;9.68;2.03;;;;;;;;;;10376902;28;20036;-43
2022/05/21 01:36:36;;;;;;;4.88;2.10;;;;;;;;;;10375014;28;20405;-43
2022/05/21 01:41:40;;;;;;;5.38;1.80;;;;;;;;;;10377952;28;20087;-42
2022/05/21 01:46:41;;;;;;;5.38;1.95;;;;;;;;;;10352287;28;20497;-42
2022/05/21 01:51:41;;;;;;;10.10;1.80;;;;;;;;;;10366751;28;20029;-43
2022/05/21 01:56:42;;;;;;;4.80;2.00;;;;;;;;;;10382753;28;20574;-42
2022/05/21 02:01:42;;;;;;;6.38;1.83;;;;;;;;;;10371363;28;20033;-43
2022/05/21 02:06:43;;;;;;;5.10;1.75;;;;;;;;;;10368809;28;20030;-43
2022/05/21 02:11:45;;;;;;;6.75;1.95;;;;;;;;;;10380840;28;20033;-42
2022/05/21 02:16:45;;;;;;;4.47;1.75;;;;;;;;;;10389693;28;20080;-43
2022/05/21 02:21:46;;;;;;;3.40;1.92;;;;;;;;;;10369552;28;20437;-42
2022/05/21 02:26:46;;;;;;;6.72;2.00;;;;;;;;;;10368473;28;20034;-43
2022/05/21 02:31:47;;;;;;;9.45;1.98;;;;;;;;;;10384192;28;20577;-43
2022/05/21 02:42:43;;;;;;;3.05;1.98;;;;;;;;;;10394041;28;20050;-43
2022/05/21 02:47:28;;;;;;;3.70;1.60;;;;;;;;;;10367022;28;20044;-42
2022/05/21 02:52:29;;;;;;;8.35;1.98;;;;;;;;;;10370539;28;20030;-42
2022/05/21 02:57:30;;;;;;;6.10;1.70;;;;;;;;;;10374218;28;20034;-43
2022/05/21 03:02:31;;;;;;;3.38;1.98;;;;;;;;;;10380853;28;20105;-43
2022/05/21 03:07:46;;;;;;;5.75;1.75;;;;;;;;;;10376053;28;20040;-42
2022/05/21 03:12:57;;;;;;;12.40;1.80;;;;;;;;;;10399739;28;20030;-43
2022/05/21 03:18:15;;;;;;;4.88;2.17;;;;;;;;;;10376532;28;20045;-43
2022/05/21 03:23:15;;;;;;;;;;;;;;;;;;10364969;28;20084;-42
2022/05/21 03:28:19;;;;;;;12.00;2.00;;;;;;;;;;10375399;28;19967;-42
2022/05/21 03:33:19;;;;;;;6.57;1.98;;;;;;;;;;10374607;28;20037;-45
2022/05/21 03:38:20;;;;;;;5.65;1.75;;;;;;;;;;10378152;28;20056;-42
2022/05/21 03:43:21;;;;;;;4.57;1.75;;;;;;;;;;10409346;28;20528;-42
2022/05/21 03:48:21;;;;;;;4.13;1.73;;;;;;;;;;10400429;28;20026;-43
2022/05/21 03:53:22;;;;;;;3.58;1.92;;;;;;;;;;10390153;28;20088;-43
2022/05/21 03:58:22;;;;;;;2.88;1.95;;;;;;;;;;10385575;28;20025;-43
2022/05/21 04:03:24;;;;;;;3.38;2.05;;;;;;;;;;10396769;28;20026;-42
2022/05/21 04:08:25;;;;;;;2.45;1.35;;;;;;;;;;10372172;28;20056;-43
2022/05/21 04:13:28;;;;;;;2.40;1.65;;;;;;;;;;10373124;28;20034;-42
2022/05/21 04:18:29;;;;;;;2.38;1.50;;;;;;;;;;10373540;28;20026;-42
2022/05/21 04:23:29;;;;;;;4.00;1.52;;;;;;;;;;10372656;28;20589;-42
2022/05/21 04:28:30;;;;;;;2.63;1.33;;;;;;;;;;10378548;28;20045;-42
2022/05/21 04:33:31;;;;;;;3.45;1.63;;;;;;;;;;10372403;28;20022;-43
2022/05/21 04:38:35;;;;;;;7.60;1.88;;;;;;;;;;10371751;28;20049;-43
2022/05/21 04:43:36;;;;;;;4.05;1.50;;;;;;;;;;10371795;28;20099;-42
2022/05/21 04:48:38;;;;;;;6.55;1.60;;;;;;;;;;10369828;28;20026;-42
2022/05/21 04:53:40;;;;;;;4.57;2.00;;;;;;;;;;10370647;28;20037;-43
2022/05/21 04:58:41;;;;;;;2.63;1.45;;;;;;;;;;10340879;28;20060;-44
2022/05/21 05:03:41;;;;;;;3.38;1.33;;;;;;;;;;10398056;28;20025;-45
2022/05/21 05:08:42;;;;;;;4.22;1.67;;;;;;;;;;10377479;28;20045;-42
2022/05/21 05:13:42;;;;;;;6.35;1.83;;;;;;;;;;10371519;28;20026;-42
2022/05/21 05:18:51;;;;;;;2.42;1.48;;;;;;;;;;10368934;28;20108;-42
2022/05/21 05:23:52;;;;;;;4.93;1.58;;;;;;;;;;10400091;28;20084;-42
2022/05/21 05:28:53;;;;;;;3.50;1.88;;;;;;;;;;10375145;28;20470;-41
2022/05/21 05:33:54;;;;;;;18.10;2.30;;;;;;;;;;10374044;28;20397;-42
2022/05/21 05:38:59;;;;;;;19.52;2.58;;;;;;;;;;10380406;28;20037;-42
2022/05/21 05:44:00;;;;;;;5.28;1.95;;;;;;;;;;10369021;28;20041;-42
2022/05/21 05:49:00;;;;;;;10.48;1.67;;;;;;;;;;10369717;28;20033;-42
2022/05/21 05:54:01;;;;;;;12.85;1.85;;;;;;;;;;10371376;28;20034;-42
2022/05/21 06:04:20;;;;;;;9.45;1.92;;;;;;;;;;10383846;28;20038;-42
2022/05/21 06:09:21;;;;;;;13.55;2.08;;;;;;;;;;10380358;28;20029;-42
2022/05/21 06:14:21;;;;;;;4.35;1.85;;;;;;;;;;10378458;28;20087;-42
2022/05/21 06:19:22;;;;;;;4.32;1.50;;;;;;;;;;10393685;28;20022;-44
2022/05/21 06:24:23;;;;;;;3.45;1.50;;;;;;;;;;10379360;28;20111;-42
2022/05/21 06:29:23;;;;;;;4.10;1.80;;;;;;;;;;10367597;28;20014;-42
2022/05/21 06:34:24;;;;;;;9.90;1.70;;;;;;;;;;10368075;28;20033;-42
2022/05/21 06:39:25;;;;;;;4.30;1.73;;;;;;;;;;10368393;28;20383;-43
2022/05/21 06:44:26;;;;;;;8.68;1.70;;;;;;;;;;10342931;28;20144;-42
2022/05/21 06:49:27;;;;;;;11.93;2.20;;;;;;;;;;10311282;28;20033;-42
2022/05/21 06:54:28;;;;;;;3.58;1.90;;;;;;;;;;10299019;28;20500;-41
2022/05/21 06:59:28;;;;;;;6.90;1.83;;;;;;;;;;10289386;28;20030;-41
2022/05/21 07:09:48;;;;;;;9.88;1.65;;;;;;;;;;10376368;28;20421;-42
2022/05/21 07:14:49;;;;;;;12.82;2.20;;;;;;;;;;10365946;28;20034;-42
2022/05/21 07:19:50;;;;;;;5.15;2.10;;;;;;;;;;10378381;28;20063;-42
2022/05/21 07:24:50;;;;;;;10.38;3.10;;;;;;;;;;10367567;28;20080;-42
2022/05/21 07:29:51;;;;;;;21.42;2.80;;;;;;;;;;10365391;28;20037;-42
2022/05/21 07:35:06;;;;;;;4.57;2.40;;;;;;;;;;10367016;28;20054;-42
2022/05/21 07:40:09;;;;;;;16.58;2.50;;;;;;;;;;10371039;28;20042;-42
2022/05/21 07:45:13;;;;;;;8.32;2.90;;;;;;;;;;10344621;28;20123;-42
2022/05/21 07:50:15;;;;;;;9.15;2.53;;;;;;;;;;10373911;28;20041;-42
2022/05/21 07:55:16;;;;;;;8.23;2.78;;;;;;;;;;10376324;28;20033;-42
2022/05/21 08:00:18;;;;;;;7.18;2.47;;;;;;;;;;10384291;28;20060;-42
2022/05/21 08:05:18;;;;;;;8.38;3.05;;;;;;;;;;10373871;28;20033;-42
2022/05/21 08:10:22;;;;;;;8.05;3.00;;;;;;;;;;10372260;28;20367;-42
2022/05/21 08:15:23;;;;;;;16.92;2.58;;;;;;;;;;10352118;28;20033;-41
2022/05/21 08:20:24;;;;;;;16.67;2.63;;;;;;;;;;10370025;28;20022;-42
2022/05/21 08:30:47;;;;;;;13.73;2.72;;;;;;;;;;10371524;28;20042;-41
2022/05/21 08:35:48;;;;;;;8.82;2.90;;;;;;;;;;10387263;28;20393;-41
2022/05/21 08:41:24;;;;;;;12.10;2.65;;;;;;;;;;10403105;28;20034;-41
2022/05/21 08:47:00;;;;;;;9.02;2.90;;;;;;;;;;10378709;28;20040;-41
2022/05/21 08:52:32;;;;;;;7.95;2.58;;;;;;;;;;10366887;28;20105;-41
2022/05/21 08:57:54;;;;;;;8.90;2.40;;;;;;;;;;10346168;28;20049;-41
2022/05/21 09:02:54;;;;;;;11.70;2.45;;;;;;;;;;10383145;28;20060;-41
2022/05/21 09:08:18;;;;;;;9.07;2.63;;;;;;;;;;10380872;28;20056;-42
2022/05/21 09:13:41;;;;;;;11.85;2.40;;;;;;;;;;10368331;28;20121;-42
2022/05/21 09:18:42;;;;;;;17.35;2.55;;;;;;;;;;10359139;28;20030;-42
2022/05/21 09:23:56;;;;;;;8.00;2.60;;;;;;;;;;10374434;28;20029;-42
2022/05/21 09:29:28;;;;;;;5.53;2.00;;;;;;;;;;10369149;28;20131;-42
2022/05/21 09:34:33;;;;;;;12.00;2.40;;;;;;;;;;10353087;28;20100;-42
2022/05/21 09:39:38;;;;;;;4.78;2.00;;;;;;;;;;10375486;28;20033;-42
2022/05/21 09:50:10;;;;;;;9.95;2.45;;;;;;;;;;10350692;28;20409;-42
2022/05/21 09:55:29;;;;;;;9.90;2.58;;;;;;;;;;10354689;28;20064;-41
2022/05/21 10:00:36;;;;;;;4.88;2.10;;;;;;;;;;10346458;28;20030;-42
2022/05/21 10:05:45;;;;;;;8.50;2.28;;;;;;;;;;10364394;28;20065;-42
2022/05/21 10:10:59;;;;;;;6.07;2.28;;;;;;;;;;10354965;28;20483;-42
2022/05/21 10:16:38;;;;;;;10.15;2.28;;;;;;;;;;10366307;28;20030;-42
2022/05/21 10:22:08;;;;;;;10.88;2.50;;;;;;;;;;10344653;28;20160;-42
2022/05/21 10:28:08;;;;;;;4.43;2.47;;;;;;;;;;10362739;28;20034;-42
2022/05/21 10:33:23;;;;;;;6.35;2.33;;;;;;;;;;10352332;28;20269;-42
2022/05/21 10:38:32;;;;;;;3.90;1.92;;;;;;;;;;10343205;28;20046;-42
2022/05/21 10:44:13;;;;;;;7.57;2.95;;;;;;;;;;10340783;28;20032;-44
2022/05/21 10:49:19;;;;;;;5.63;1.80;;;;;;;;;;10356451;28;20037;-45
2022/05/21 10:54:45;;;;;;;4.03;1.75;;;;;;;;;;10331133;28;20030;-45
2022/05/21 11:00:06;;;;;;;6.55;2.45;;;;;;;;;;10337638;28;20034;-45
2022/05/21 11:06:00;;;;;;;2.80;1.60;;;;;;;;;;10334332;28;20058;-45
2022/05/21 11:11:13;;;;;;;7.55;2.20;;;;;;;;;;10288890;28;20138;-45
2022/05/21 11:16:31;;;;;;;6.63;2.08;;;;;;;;;;10335598;28;20041;-45
2022/05/21 11:21:39;;;;;;;4.65;2.53;;;;;;;;;;10362413;28;20056;-45
2022/05/21 11:26:56;;;;;;;3.38;2.03;;;;;;;;;;10344849;28;20512;-45
2022/05/21 11:37:21;;;;;;;2.75;2.03;;;;;;;;;;10367496;28;20497;-45
2022/05/21 11:42:50;;;;;;;4.47;2.08;;;;;;;;;;10365307;28;20027;-45
2022/05/21 11:48:16;;;;;;;5.45;2.30;;;;;;;;;;10368538;28;20034;-44
2022/05/21 11:53:38;;;;;;;6.28;2.22;;;;;;;;;;10378720;28;20561;-45
2022/05/21 11:59:02;;;;;;;7.03;2.03;;;;;;;;;;10379317;28;20033;-45
2022/05/21 12:04:03;;;;;;;2.95;1.75;;;;;;;;;;10367082;28;20216;-45
2022/05/21 12:09:32;;;;;;;5.10;2.03;;;;;;;;;;10358643;28;20485;-45
2022/05/21 12:15:11;;;;;;;2.53;1.95;;;;;;;;;;10384158;28;20034;-45
2022/05/21 12:20:35;;;;;;;5.65;2.33;;;;;;;;;;10352637;28;20124;-45
2022/05/21 12:25:42;;;;;;;6.15;2.40;;;;;;;;;;10391136;28;20041;-45
2022/05/21 12:30:43;;;;;;;4.05;1.95;;;;;;;;;;10366479;28;20026;-46
2022/05/21 12:36:40;;;;;;;4.25;2.15;;;;;;;;;;10384223;28;20072;-46
2022/05/21 12:41:46;;;;;;;3.65;2.30;;;;;;;;;;10348059;28;20048;-44
2022/05/21 12:46:51;;;;;;;2.20;2.00;;;;;;;;;;10370440;28;20385;-45
2022/05/21 12:51:52;;;;;;;3.83;2.28;;;;;;;;;;10371894;28;20432;-45
2022/05/21 12:56:55;;;;;;;11.70;2.55;;;;;;;;;;10370032;28;20161;-45
2022/05/21 13:02:17;;;;;;;7.93;2.60;;;;;;;;;;10375128;28;20039;-45
2022/05/21 13:07:26;;;;;;;3.47;2.25;;;;;;;;;;10373649;28;20034;-45
2022/05/21 13:12:40;;;;;;;4.22;2.58;;;;;;;;;;10352865;28;20041;-45
2022/05/21 13:18:10;;;;;;;7.22;2.25;;;;;;;;;;10354954;28;20036;-44
2022/05/21 13:23:42;;;;;;;12.15;2.35;;;;;;;;;;10342554;28;20045;-45
2022/05/21 13:28:42;;;;;;;6.47;2.40;;;;;;;;;;10370286;28;20037;-45
2022/05/21 13:33:52;;;;;;;5.38;2.50;;;;;;;;;;10369216;28;20409;-45
2022/05/21 13:38:56;;;;;;;14.40;3.13;;;;;;;;;;10368626;28;20386;-46
2022/05/21 13:43:58;;;;;;;5.97;3.00;;;;;;;;;;10369328;28;20033;-44
2022/05/21 13:49:04;;;;;;;6.00;2.80;;;;;;;;;;10357504;28;20057;-43
2022/05/21 13:54:05;;;;;;;6.63;2.72;;;;;;;;;;10351848;28;20323;-44
2022/05/21 13:59:23;;;;;;;6.82;2.75;;;;;;;;;;10352671;28;20056;-45
2022/05/21 14:04:39;;;;;;;4.20;2.67;;;;;;;;;;10375002;28;20030;-45
2022/05/21 14:09:46;;;;;;;4.38;2.72;;;;;;;;;;10383827;28;20486;-45
2022/05/21 14:14:49;;;;;;;8.57;3.15;;;;;;;;;;10363135;28;20044;-45
2022/05/21 14:20:17;;;;;;;8.23;3.33;;;;;;;;;;10362931;28;20075;-44
2022/05/21 14:25:33;;;;;;;7.13;3.05;;;;;;;;;;10349683;28;20042;-45
2022/05/21 14:30:47;;;;;;;8.70;3.08;;;;;;;;;;10397066;28;20032;-44
2022/05/21 14:35:49;;;;;;;14.60;3.40;;;;;;;;;;10383254;28;20080;-44
2022/05/21 14:40:58;;;;;;;10.57;3.17;;;;;;;;;;10382815;28;20076;-49
2022/05/21 14:46:00;;;;;;;11.80;3.20;;;;;;;;;;10379571;28;20033;-46
2022/05/21 14:56:28;;;;;;;9.38;3.33;;;;;;;;;;10363566;28;20409;-47
2022/05/21 15:01:29;;;;;;;8.63;3.05;;;;;;;;;;10366664;28;20026;-46
2022/05/21 15:06:34;;;;;;;11.13;3.60;;;;;;;;;;10367963;28;20026;-46
2022/05/21 15:11:35;;;;;;;6.55;3.47;;;;;;;;;;10330301;28;20036;-49
2022/05/21 15:16:35;;;;;;;11.55;3.30;;;;;;;;;;10378831;28;20037;-46
2022/05/21 15:21:41;;;;;;;7.65;3.03;;;;;;;;;;10390720;28;20026;-47
2022/05/21 15:26:42;;;;;;;11.02;3.15;;;;;;;;;;10352559;28;20041;-46
2022/05/21 15:31:43;;;;;;;12.45;3.95;;;;;;;;;;10406600;28;20047;-45
2022/05/21 15:36:43;;;;;;;8.40;3.65;;;;;;;;;;10354526;28;20050;-46
2022/05/21 15:41:44;;;;;;;5.85;3.20;;;;;;;;;;10375021;28;20029;-46
2022/05/21 15:46:48;;;;;;;7.40;3.13;;;;;;;;;;10367024;28;20022;-46
2022/05/21 15:51:49;;;;;;;6.68;3.45;;;;;;;;;;10367264;28;20030;-47
2022/05/21 15:56:52;;;;;;;4.68;2.80;;;;;;;;;;10387008;28;20052;-45
2022/05/21 16:01:53;;;;;;;6.93;2.80;;;;;;;;;;10365720;28;20404;-45
2022/05/21 16:06:53;;;;;;;8.27;3.53;;;;;;;;;;10370991;28;20038;-46
2022/05/21 16:11:54;;;;;;;3.85;2.80;;;;;;;;;;10366545;28;20033;-45
2022/05/21 16:16:54;;;;;;;6.00;2.88;;;;;;;;;;10351613;28;20034;-46
2022/05/21 16:22:01;;;;;;;7.65;3.00;;;;;;;;;;10369913;28;20474;-46
2022/05/21 16:27:10;;;;;;;5.97;2.83;;;;;;;;;;10342262;28;20042;-44
2022/05/21 16:32:19;;;;;;;5.57;3.08;;;;;;;;;;10360222;28;20556;-46
2022/05/21 16:37:21;;;;;;;4.68;3.17;;;;;;;;;;10360570;28;21231;-48
2022/05/21 16:42:22;;;;;;;3.78;2.70;;;;;;;;;;10357213;28;20027;-46
2022/05/21 16:47:24;;;;;;;6.55;3.05;;;;;;;;;;10355059;28;20113;-46
2022/05/21 16:52:25;;;;;;;8.57;2.85;;;;;;;;;;10348688;28;20740;-47
2022/05/21 16:57:25;;;;;;;3.92;2.80;;;;;;;;;;10368162;28;20037;-46
2022/05/21 17:02:26;;;;;;;6.15;2.78;;;;;;;;;;10369355;28;20536;-46
2022/05/21 17:07:30;;;;;;;8.95;3.78;;;;;;;;;;10367685;28;20547;-48
2022/05/21 17:12:31;;;;;;;11.43;2.83;;;;;;;;;;10372010;28;20113;-45
2022/05/21 17:17:32;;;;;;;6.78;3.30;;;;;;;;;;10361942;28;20573;-45
2022/05/21 17:22:33;;;;;;;10.23;3.15;;;;;;;;;;10358393;28;20018;-48
2022/05/21 17:33:14;;;;;;;8.98;2.95;;;;;;;;;;10361514;28;20026;-48
2022/05/21 17:38:16;;;;;;;9.27;3.35;;;;;;;;;;10362765;28;20038;-47
2022/05/21 17:43:16;;;;;;;6.80;2.80;;;;;;;;;;10368084;28;20070;-46
2022/05/21 17:48:17;;;;;;;4.93;3.03;;;;;;;;;;10356656;28;20022;-46
2022/05/21 17:53:20;;;;;;;6.25;3.03;;;;;;;;;;10360140;28;20040;-46
2022/05/21 17:58:22;;;;;;;9.40;2.55;;;;;;;;;;10366677;28;20108;-46
2022/05/21 18:03:26;;;;;;;6.40;2.60;;;;;;;;;;10371589;28;20116;-44
2022/05/21 18:08:29;;;;;;;4.82;2.92;;;;;;;;;;10363122;28;20128;-46
2022/05/21 18:13:30;;;;;;;3.45;3.00;;;;;;;;;;10371879;28;20026;-47
2022/05/21 18:23:51;;;;;;;8.63;3.10;;;;;;;;;;10359620;28;20401;-46
2022/05/21 18:28:53;;;;;;;4.20;2.90;;;;;;;;;;10362026;28;20068;-46
2022/05/21 18:33:56;;;;;;;4.88;2.80;;;;;;;;;;10369557;28;20063;-47
2022/05/21 18:38:57;;;;;;;4.07;2.60;;;;;;;;;;10364510;28;20053;-45
2022/05/21 18:44:01;;;;;;;3.70;2.70;;;;;;;;;;10383788;28;20053;-46
2022/05/21 18:49:03;;;;;;;3.95;2.75;;;;;;;;;;10358537;28;20032;-46
2022/05/21 18:54:06;;;;;;;3.38;2.85;;;;;;;;;;10363677;28;20041;-48
2022/05/21 18:59:07;;;;;;;4.60;2.58;;;;;;;;;;10333889;28;20030;-46
2022/05/21 19:04:08;;;;;;;4.07;2.60;;;;;;;;;;10364905;28;20030;-45
2022/05/21 19:09:09;;;;;;;6.70;2.72;;;;;;;;;;10369635;28;20407;-46
2022/05/21 19:14:11;;;;;;;4.75;2.55;;;;;;;;;;10384347;28;20037;-46
2022/05/21 19:19:22;;;;;;;3.70;2.60;;;;;;;;;;10369227;28;20026;-45
2022/05/21 19:24:26;;;;;;;5.90;2.50;;;;;;;;;;10364307;28;20136;-46
2022/05/21 19:29:30;;;;;;;3.17;2.47;;;;;;;;;;10363969;28;20034;-45
2022/05/21 19:34:31;;;;;;;4.65;2.50;;;;;;;;;;10373502;28;20034;-46
2022/05/21 19:44:54;;;;;;;2.53;2.33;;;;;;;;;;10385913;28;20037;-46
2022/05/21 19:49:55;;;;;;;4.10;2.55;;;;;;;;;;10380568;28;20032;-46
2022/05/21 19:54:58;;;;;;;5.60;2.53;;;;;;;;;;10378710;28;20040;-46
2022/05/21 19:59:59;;;;;;;4.15;2.58;;;;;;;;;;10375912;28;20109;-46
2022/05/21 20:05:01;;;;;;;3.92;2.22;;;;;;;;;;10381838;28;20465;-45
2022/05/21 20:10:03;;;;;;;3.78;2.60;;;;;;;;;;10378269;28;20034;-45
2022/05/21 20:15:04;;;;;;;4.72;2.42;;;;;;;;;;10379732;28;20037;-45
2022/05/21 20:20:06;;;;;;;4.18;2.50;;;;;;;;;;10390284;28;20087;-46
2022/05/21 20:25:09;;;;;;;3.55;2.38;;;;;;;;;;10385631;28;20030;-44
2022/05/21 20:30:12;;;;;;;3.80;2.53;;;;;;;;;;10369810;28;20076;-45
2022/05/21 20:35:13;;;;;;;3.58;2.50;;;;;;;;;;10368660;28;20037;-45
2022/05/21 20:40:14;;;;;;;2.90;2.20;;;;;;;;;;10362791;28;20037;-45
2022/05/21 20:45:16;;;;;;;4.55;2.75;;;;;;;;;;10380682;28;20083;-46
2022/05/21 20:50:17;;;;;;;2.80;2.30;;;;;;;;;;10370520;28;20029;-46
2022/05/21 20:55:17;;;;;;;3.13;2.28;;;;;;;;;;10364782;28;20033;-47
2022/05/21 21:00:20;;;;;;;3.92;2.40;;;;;;;;;;10370966;28;20037;-47
2022/05/21 21:05:22;;;;;;;4.18;2.25;;;;;;;;;;10368930;28;20034;-46
2022/05/21 21:10:23;;;;;;;3.83;2.10;;;;;;;;;;10349569;28;20040;-45
2022/05/21 21:15:23;;;;;;;2.88;2.53;;;;;;;;;;10360351;28;20046;-44
2022/05/21 21:20:24;;;;;;;3.13;2.08;;;;;;;;;;10359548;28;20033;-49
2022/05/21 21:25:25;;;;;;;2.30;2.10;;;;;;;;;;10351970;28;20440;-47
2022/05/21 21:30:26;;;;;;;2.95;2.35;;;;;;;;;;10360180;28;20038;-47
2022/05/21 21:35:27;;;;;;;5.43;2.38;;;;;;;;;;10360135;28;20046;-46
2022/05/21 21:40:28;;;;;;;2.30;2.10;;;;;;;;;;10355092;28;20073;-47
2022/05/21 21:45:28;;;;;;;2.42;2.20;;;;;;;;;;10350789;28;20026;-47
2022/05/21 21:50:29;;;;;;;2.28;2.08;;;;;;;;;;10354119;28;20384;-47
2022/05/21 21:55:30;;;;;;;2.58;2.35;;;;;;;;;;10353827;28;20523;-45
2022/05/21 22:06:04;;;;;;;3.47;2.30;;;;;;;;;;10363959;28;20053;-46
2022/05/21 22:11:05;;;;;;;2.63;2.20;;;;;;;;;;10379056;28;20457;-47
2022/05/21 22:16:06;;;;;;;2.08;1.90;;;;;;;;;;10377874;28;20029;-45
2022/05/21 22:21:07;;;;;;;3.53;2.28;;;;;;;;;;10362630;28;20745;-49
2022/05/21 22:26:09;;;;;;;2.75;2.40;;;;;;;;;;10364052;28;20143;-48
2022/05/21 22:31:10;;;;;;;3.25;2.22;;;;;;;;;;10362106;28;20061;-49
2022/05/21 22:36:11;;;;;;;3.03;2.17;;;;;;;;;;10361149;28;20045;-47
2022/05/21 22:41:12;;;;;;;4.45;2.42;;;;;;;;;;10359197;28;20026;-45
2022/05/21 22:46:13;;;;;;;2.33;2.10;;;;;;;;;;10362878;28;20490;-45
2022/05/21 22:51:21;;;;;;;2.90;2.22;;;;;;;;;;10362652;28;20052;-48
2022/05/21 22:56:23;;;;;;;2.65;2.22;;;;;;;;;;10369420;28;20111;-46
2022/05/21 23:01:23;;;;;;;2.75;2.10;;;;;;;;;;10350567;28;20115;-46
2022/05/21 23:06:24;;;;;;;3.03;2.45;;;;;;;;;;10375027;28;20038;-45
2022/05/21 23:11:24;;;;;;;27.25;7.75;;;;;;;;;;10370458;28;20052;-45
2022/05/21 23:27:04;;;;;;;8.82;4.72;;;;;;;;;;10358139;28;20026;-46
2022/05/21 23:32:05;;;;;;;10.30;3.83;;;;;;;;;;10377899;28;20048;-46
2022/05/21 23:37:09;;;;;;;26.20;4.00;;;;;;;;;;10357553;28;20054;-47
2022/05/21 23:42:10;;;;;;;23.52;4.35;;;;;;;;;;10374488;28;20038;-46
2022/05/21 23:47:12;;;;;;;22.13;4.05;;;;;;;;;;10348944;28;20049;-47
2022/05/21 23:52:15;;;;;;;29.80;4.03;;;;;;;;;;10337404;28;20377;-49
2022/05/21 23:57:17;;;;;;;15.90;4.15;;;;;;;;;;10346224;28;20022;-49
